Time;durP1;ratioP1;P1;durP2;ratioP2;P2;SDS_P1;SDS_P2;PMS_P1;PMS_P2;Temp;Humidity;BMP_temperature;BMP_pressure;BME280_temperature;BME280_humidity;BME280_pressure;Samples;Min_cycle;Max_cycle;Signal;HPM_P1;HPM_P2
2023/12/04 00:00:54;;;;;;;4.45;1.00;;;;;;;;;;5029221;28;20037;-44
2023/12/04 00:03:22;;;;;;;5.97;1.40;;;;;;;;;;5024107;28;20495;-42
2023/12/04 00:05:50;;;;;;;5.32;1.17;;;;;;;;;;5027743;28;20045;-44
2023/12/04 00:08:17;;;;;;;6.72;0.90;;;;;;;;;;5025056;28;20025;-43
2023/12/04 00:10:47;;;;;;;3.72;0.80;;;;;;;;;;5026595;28;20053;-42
2023/12/04 00:13:16;;;;;;;5.15;1.13;;;;;;;;;;5026728;28;20041;-43
2023/12/04 00:15:43;;;;;;;4.10;1.00;;;;;;;;;;5031569;28;20051;-42
2023/12/04 00:18:11;;;;;;;5.53;0.77;;;;;;;;;;5022682;28;20041;-42
2023/12/04 00:20:39;;;;;;;4.47;0.82;;;;;;;;;;5030228;28;20068;-42
2023/12/04 00:23:07;;;;;;;4.22;0.95;;;;;;;;;;5033004;28;20103;-43
2023/12/04 00:25:34;;;;;;;4.50;0.90;;;;;;;;;;5029057;28;20033;-42
2023/12/04 00:28:03;;;;;;;4.30;1.00;;;;;;;;;;5017432;28;20094;-42
2023/12/04 00:30:31;;;;;;;4.75;1.65;;;;;;;;;;5026525;28;20055;-43
2023/12/04 00:32:59;;;;;;;5.68;1.15;;;;;;;;;;5020936;28;20052;-42
2023/12/04 00:35:27;;;;;;;3.97;0.98;;;;;;;;;;5031144;28;20351;-42
2023/12/04 00:37:54;;;;;;;4.95;1.10;;;;;;;;;;5017231;28;20033;-43
2023/12/04 00:40:23;;;;;;;4.17;1.17;;;;;;;;;;5028948;28;20033;-42
2023/12/04 00:42:50;;;;;;;5.78;1.30;;;;;;;;;;5022192;28;20048;-42
2023/12/04 00:45:19;;;;;;;6.18;1.20;;;;;;;;;;5028248;28;20037;-42
2023/12/04 00:47:47;;;;;;;7.65;1.30;;;;;;;;;;5018983;28;20041;-42
2023/12/04 00:50:15;;;;;;;5.03;1.10;;;;;;;;;;5027982;28;20127;-42
2023/12/04 00:52:42;;;;;;;5.10;1.27;;;;;;;;;;5020073;28;20049;-42
2023/12/04 00:55:13;;;;;;;5.28;1.10;;;;;;;;;;5030863;28;20045;-44
2023/12/04 00:57:40;;;;;;;4.00;0.93;;;;;;;;;;5026318;28;20040;-42
2023/12/04 01:00:09;;;;;;;5.32;1.02;;;;;;;;;;5021278;28;20114;-42
2023/12/04 01:02:39;;;;;;;4.50;1.10;;;;;;;;;;5022943;28;20098;-43
2023/12/04 01:05:06;;;;;;;6.10;1.37;;;;;;;;;;5033173;28;20037;-43
2023/12/04 01:07:34;;;;;;;7.57;1.48;;;;;;;;;;5019750;28;20553;-42
2023/12/04 01:10:03;;;;;;;3.78;1.02;;;;;;;;;;5031504;28;20047;-43
2023/12/04 01:12:31;;;;;;;4.15;1.20;;;;;;;;;;5024110;28;20041;-42
2023/12/04 01:14:59;;;;;;;6.05;1.45;;;;;;;;;;5024951;28;20051;-42
2023/12/04 01:17:27;;;;;;;5.33;0.90;;;;;;;;;;5025464;28;20041;-42
2023/12/04 01:19:57;;;;;;;5.25;1.00;;;;;;;;;;5024604;28;20124;-43
2023/12/04 01:22:25;;;;;;;4.32;1.10;;;;;;;;;;5026319;28;20063;-42
2023/12/04 01:24:53;;;;;;;4.65;1.35;;;;;;;;;;5017430;28;20037;-43
2023/12/04 01:27:20;;;;;;;3.95;0.80;;;;;;;;;;5025274;28;20055;-42
2023/12/04 01:29:49;;;;;;;5.70;1.00;;;;;;;;;;5022434;28;20051;-42
2023/12/04 01:32:17;;;;;;;6.22;0.98;;;;;;;;;;5017467;28;20044;-43
2023/12/04 01:34:44;;;;;;;5.35;0.68;;;;;;;;;;5027817;28;20064;-42
2023/12/04 01:37:14;;;;;;;4.50;0.90;;;;;;;;;;5020409;28;20427;-42
2023/12/04 01:39:41;;;;;;;3.45;0.73;;;;;;;;;;5031509;28;20037;-42
2023/12/04 01:42:10;;;;;;;4.57;1.00;;;;;;;;;;5020388;28;20059;-42
2023/12/04 01:44:38;;;;;;;5.03;0.80;;;;;;;;;;5024147;28;20037;-43
2023/12/04 01:47:07;;;;;;;4.72;0.90;;;;;;;;;;5024647;28;20080;-42
2023/12/04 01:49:35;;;;;;;5.22;1.20;;;;;;;;;;5025358;28;20037;-42
2023/12/04 01:52:03;;;;;;;4.30;0.90;;;;;;;;;;5021975;28;20048;-45
2023/12/04 01:54:33;;;;;;;4.90;0.67;;;;;;;;;;5030823;28;20037;-42
2023/12/04 01:57:02;;;;;;;5.13;0.70;;;;;;;;;;5022739;28;20040;-44
2023/12/04 01:59:30;;;;;;;4.22;1.10;;;;;;;;;;5023005;28;20461;-42
2023/12/04 02:01:58;;;;;;;5.65;1.30;;;;;;;;;;5030673;28;20052;-42
2023/12/04 02:04:27;;;;;;;4.75;0.80;;;;;;;;;;5022224;28;20116;-43
2023/12/04 02:06:55;;;;;;;4.80;0.90;;;;;;;;;;5021269;28;20537;-44
2023/12/04 02:09:23;;;;;;;5.03;1.10;;;;;;;;;;5022198;28;20129;-44
2023/12/04 02:11:53;;;;;;;5.78;0.60;;;;;;;;;;5020331;28;20045;-42
2023/12/04 02:14:25;;;;;;;4.40;0.80;;;;;;;;;;5025956;28;20041;-42
2023/12/04 02:16:54;;;;;;;4.45;0.60;;;;;;;;;;5021954;28;20406;-42
2023/12/04 02:19:22;;;;;;;3.93;0.77;;;;;;;;;;5022884;28;20044;-42
2023/12/04 02:21:50;;;;;;;4.70;1.08;;;;;;;;;;5019679;28;20049;-43
2023/12/04 02:24:19;;;;;;;4.13;0.70;;;;;;;;;;5019563;28;20041;-43
2023/12/04 02:26:48;;;;;;;3.67;0.90;;;;;;;;;;5026226;28;20485;-43
2023/12/04 02:29:20;;;;;;;3.88;0.77;;;;;;;;;;5015488;28;20052;-42
2023/12/04 02:31:48;;;;;;;4.50;1.13;;;;;;;;;;5031001;28;20053;-42
2023/12/04 02:34:17;;;;;;;4.78;1.00;;;;;;;;;;5019388;28;21507;-42
2023/12/04 02:36:45;;;;;;;4.75;0.70;;;;;;;;;;5028967;28;20045;-42
2023/12/04 02:39:13;;;;;;;4.75;1.15;;;;;;;;;;5008887;28;20044;-43
2023/12/04 02:41:42;;;;;;;7.15;0.70;;;;;;;;;;5029218;28;20479;-43
2023/12/04 02:44:10;;;;;;;4.17;0.43;;;;;;;;;;5018772;28;20045;-42
2023/12/04 02:46:38;;;;;;;5.72;1.02;;;;;;;;;;5047802;28;20074;-42
2023/12/04 02:49:06;;;;;;;7.15;1.08;;;;;;;;;;5020542;28;20537;-42
2023/12/04 02:51:33;;;;;;;4.45;0.70;;;;;;;;;;5033166;28;20059;-42
2023/12/04 02:54:01;;;;;;;6.65;0.60;;;;;;;;;;5024404;28;20052;-42
2023/12/04 02:56:29;;;;;;;4.87;0.90;;;;;;;;;;5034575;28;20049;-42
2023/12/04 02:58:58;;;;;;;5.13;1.00;;;;;;;;;;5024571;28;20041;-42
2023/12/04 03:01:26;;;;;;;3.65;0.60;;;;;;;;;;5031919;28;20078;-42
2023/12/04 03:03:54;;;;;;;4.13;0.70;;;;;;;;;;5023035;28;20091;-44
2023/12/04 03:06:21;;;;;;;5.03;0.85;;;;;;;;;;5031840;28;20045;-42
2023/12/04 03:08:49;;;;;;;4.63;0.60;;;;;;;;;;5019673;28;20037;-43
2023/12/04 03:11:17;;;;;;;7.07;0.70;;;;;;;;;;5033694;28;20845;-43
2023/12/04 03:13:45;;;;;;;4.35;0.50;;;;;;;;;;5022982;28;20041;-42
2023/12/04 03:16:18;;;;;;;4.53;0.60;;;;;;;;;;5028658;28;20045;-43
2023/12/04 03:18:46;;;;;;;3.72;0.60;;;;;;;;;;5024766;28;20120;-42
2023/12/04 03:21:14;;;;;;;4.43;0.67;;;;;;;;;;5024623;28;20041;-43
2023/12/04 03:23:41;;;;;;;3.63;0.70;;;;;;;;;;5025553;28;20048;-42
2023/12/04 03:26:10;;;;;;;3.65;0.60;;;;;;;;;;5027403;28;20037;-42
2023/12/04 03:28:39;;;;;;;3.50;0.40;;;;;;;;;;5025136;28;20039;-42
2023/12/04 03:31:07;;;;;;;3.38;0.43;;;;;;;;;;5027095;28;20045;-43
2023/12/04 03:33:36;;;;;;;3.27;0.50;;;;;;;;;;5015141;28;20066;-42
2023/12/04 03:36:08;;;;;;;4.18;0.80;;;;;;;;;;5035516;28;20045;-42
2023/12/04 03:38:37;;;;;;;4.03;0.65;;;;;;;;;;5044549;28;20033;-42
2023/12/04 03:41:04;;;;;;;3.50;0.40;;;;;;;;;;5032535;28;20090;-42
2023/12/04 03:43:32;;;;;;;3.58;0.50;;;;;;;;;;5035124;28;20041;-42
2023/12/04 03:46:01;;;;;;;4.83;0.33;;;;;;;;;;5025348;28;20128;-43
2023/12/04 03:48:29;;;;;;;5.10;0.65;;;;;;;;;;5038088;28;20048;-43
2023/12/04 03:50:59;;;;;;;3.78;0.80;;;;;;;;;;5023469;28;20045;-42
2023/12/04 03:53:28;;;;;;;5.10;0.75;;;;;;;;;;5028747;28;20148;-42
2023/12/04 03:55:55;;;;;;;4.75;0.60;;;;;;;;;;5019400;28;20037;-42
2023/12/04 03:58:23;;;;;;;5.87;0.70;;;;;;;;;;5036719;28;20049;-42
2023/12/04 04:00:52;;;;;;;4.20;0.50;;;;;;;;;;5016275;28;20570;-44
2023/12/04 04:03:19;;;;;;;4.18;0.63;;;;;;;;;;5036803;28;20495;-42
2023/12/04 04:05:47;;;;;;;4.85;0.60;;;;;;;;;;5020741;28;20394;-42
2023/12/04 04:08:16;;;;;;;3.58;0.60;;;;;;;;;;5034788;28;20041;-42
2023/12/04 04:10:45;;;;;;;3.13;0.50;;;;;;;;;;5028017;28;20400;-42
2023/12/04 04:13:13;;;;;;;3.25;0.65;;;;;;;;;;5030272;28;20041;-42
2023/12/04 04:15:40;;;;;;;4.28;0.60;;;;;;;;;;5015489;28;20045;-43
2023/12/04 04:18:08;;;;;;;4.10;0.70;;;;;;;;;;5011003;28;20118;-42
2023/12/04 04:20:36;;;;;;;3.33;0.60;;;;;;;;;;5036930;28;20037;-43
2023/12/04 04:23:04;;;;;;;2.90;0.50;;;;;;;;;;5021028;28;20480;-42
2023/12/04 04:25:33;;;;;;;3.80;0.70;;;;;;;;;;5028046;28;20042;-42
2023/12/04 04:28:01;;;;;;;5.45;0.70;;;;;;;;;;5024357;28;20040;-43
2023/12/04 04:30:46;;;;;;;4.75;0.90;;;;;;;;;;5034695;28;20123;-42
2023/12/04 04:33:14;;;;;;;4.32;0.80;;;;;;;;;;5030249;28;20076;-42
2023/12/04 04:35:42;;;;;;;5.03;0.73;;;;;;;;;;5025139;28;20118;-43
2023/12/04 04:38:10;;;;;;;5.47;0.70;;;;;;;;;;5032260;28;20029;-42
2023/12/04 04:40:42;;;;;;;5.00;0.85;;;;;;;;;;5034987;28;20033;-42
2023/12/04 04:43:10;;;;;;;5.35;0.80;;;;;;;;;;5038713;28;20040;-43
2023/12/04 04:45:39;;;;;;;4.22;1.10;;;;;;;;;;5016838;28;20036;-42
2023/12/04 04:48:06;;;;;;;6.67;0.90;;;;;;;;;;5031508;28;20511;-42
2023/12/04 04:50:34;;;;;;;5.03;1.00;;;;;;;;;;5033232;28;20560;-42
2023/12/04 04:53:02;;;;;;;7.22;1.20;;;;;;;;;;5034037;28;20060;-42
2023/12/04 04:55:30;;;;;;;7.18;1.45;;;;;;;;;;5031557;28;20442;-42
2023/12/04 04:58:17;;;;;;;6.72;1.58;;;;;;;;;;5037541;28;20102;-42
2023/12/04 05:00:44;;;;;;;5.37;1.20;;;;;;;;;;5023690;28;20037;-44
2023/12/04 05:03:12;;;;;;;6.00;1.40;;;;;;;;;;5053049;28;20030;-42
2023/12/04 05:05:40;;;;;;;5.10;1.55;;;;;;;;;;5034020;28;20037;-42
2023/12/04 05:08:08;;;;;;;7.03;1.70;;;;;;;;;;5028514;28;20483;-42
2023/12/04 05:10:36;;;;;;;8.02;1.48;;;;;;;;;;5035050;28;20041;-42
2023/12/04 05:13:03;;;;;;;7.77;1.50;;;;;;;;;;5026108;28;20675;-44
2023/12/04 05:15:32;;;;;;;7.85;1.73;;;;;;;;;;5031982;28;20465;-42
2023/12/04 05:18:00;;;;;;;5.72;1.60;;;;;;;;;;5026403;28;20044;-42
2023/12/04 05:20:28;;;;;;;6.60;1.90;;;;;;;;;;5026820;28;20044;-42
2023/12/04 05:22:57;;;;;;;7.35;1.98;;;;;;;;;;5030288;28;20061;-43
2023/12/04 05:25:24;;;;;;;7.57;2.40;;;;;;;;;;5030949;28;20049;-42
2023/12/04 05:28:00;;;;;;;9.25;2.22;;;;;;;;;;5029724;28;20055;-42
2023/12/04 05:30:28;;;;;;;7.40;1.95;;;;;;;;;;5027394;28;20045;-42
2023/12/04 05:32:57;;;;;;;10.75;2.00;;;;;;;;;;5019573;28;20045;-42
2023/12/04 05:35:25;;;;;;;7.18;2.15;;;;;;;;;;5013583;28;20079;-42
2023/12/04 05:37:52;;;;;;;7.00;2.33;;;;;;;;;;5025527;28;20037;-43
2023/12/04 05:40:20;;;;;;;7.10;2.20;;;;;;;;;;5028727;28;21799;-43
2023/12/04 05:42:48;;;;;;;8.77;2.25;;;;;;;;;;5021265;28;20119;-43
2023/12/04 05:45:16;;;;;;;12.80;2.72;;;;;;;;;;5033889;28;20047;-43
2023/12/04 05:47:44;;;;;;;8.05;2.00;;;;;;;;;;5024279;28;20045;-42
2023/12/04 05:50:13;;;;;;;9.90;2.97;;;;;;;;;;5028390;28;20033;-42
2023/12/04 05:52:40;;;;;;;9.85;2.65;;;;;;;;;;5015975;28;20645;-42
2023/12/04 05:55:09;;;;;;;8.07;2.47;;;;;;;;;;5030013;28;20041;-42
2023/12/04 05:57:39;;;;;;;8.85;2.47;;;;;;;;;;5015764;28;20029;-42
2023/12/04 06:00:12;;;;;;;10.05;2.45;;;;;;;;;;5031180;28;20033;-42
2023/12/04 06:02:40;;;;;;;10.43;1.80;;;;;;;;;;5017863;28;20033;-43
2023/12/04 06:05:09;;;;;;;9.48;2.53;;;;;;;;;;5023999;28;20065;-42
2023/12/04 06:07:38;;;;;;;10.25;2.20;;;;;;;;;;5024371;28;20130;-42
2023/12/04 06:10:07;;;;;;;10.75;2.47;;;;;;;;;;5024121;28;20068;-42
2023/12/04 06:12:36;;;;;;;7.70;2.28;;;;;;;;;;5014891;28;20051;-42
2023/12/04 06:15:04;;;;;;;11.00;2.60;;;;;;;;;;5026614;28;20041;-43
2023/12/04 06:17:32;;;;;;;12.73;3.28;;;;;;;;;;5023116;28;20029;-42
2023/12/04 06:20:00;;;;;;;10.10;2.40;;;;;;;;;;5025323;28;20533;-42
2023/12/04 06:22:28;;;;;;;6.60;2.20;;;;;;;;;;5019005;28;20534;-42
2023/12/04 06:24:58;;;;;;;8.98;2.63;;;;;;;;;;5025804;28;20060;-42
2023/12/04 06:27:26;;;;;;;9.53;2.03;;;;;;;;;;5018924;28;20790;-42
2023/12/04 06:29:54;;;;;;;6.53;1.73;;;;;;;;;;5019849;28;20041;-42
2023/12/04 06:32:22;;;;;;;7.13;2.05;;;;;;;;;;5021579;28;20044;-44
2023/12/04 06:34:50;;;;;;;7.75;2.30;;;;;;;;;;5018788;28;20044;-42
2023/12/04 06:37:18;;;;;;;10.48;2.20;;;;;;;;;;5026851;28;20483;-42
2023/12/04 06:39:49;;;;;;;6.70;2.37;;;;;;;;;;5017585;28;20037;-42
2023/12/04 06:42:19;;;;;;;10.75;2.40;;;;;;;;;;5022594;28;20048;-44
2023/12/04 06:44:47;;;;;;;11.30;2.78;;;;;;;;;;5020015;28;20624;-43
2023/12/04 06:47:18;;;;;;;9.50;2.38;;;;;;;;;;5025275;28;20033;-42
2023/12/04 06:49:46;;;;;;;6.53;2.40;;;;;;;;;;5023542;28;20047;-42
2023/12/04 06:52:14;;;;;;;13.07;3.03;;;;;;;;;;5020042;28;20487;-44
2023/12/04 06:54:42;;;;;;;10.70;3.10;;;;;;;;;;5026813;28;20535;-42
2023/12/04 06:57:10;;;;;;;11.63;2.88;;;;;;;;;;5040179;28;20041;-42
2023/12/04 06:59:39;;;;;;;12.15;2.90;;;;;;;;;;5019786;28;20037;-42
2023/12/04 07:02:06;;;;;;;10.88;3.40;;;;;;;;;;5017253;28;20044;-42
2023/12/04 07:04:34;;;;;;;11.30;2.80;;;;;;;;;;5023419;28;20037;-42
2023/12/04 07:07:04;;;;;;;8.35;2.95;;;;;;;;;;5012272;28;20144;-42
2023/12/04 07:09:33;;;;;;;11.60;3.20;;;;;;;;;;5028192;28;20505;-42
2023/12/04 07:12:02;;;;;;;9.00;2.80;;;;;;;;;;5018512;28;20064;-42
2023/12/04 07:14:30;;;;;;;11.35;2.72;;;;;;;;;;5032054;28;20660;-43
2023/12/04 07:17:00;;;;;;;10.80;3.27;;;;;;;;;;5044541;28;20042;-42
2023/12/04 07:19:28;;;;;;;8.80;2.60;;;;;;;;;;5034688;28;20507;-42
2023/12/04 07:21:56;;;;;;;9.25;2.28;;;;;;;;;;5042468;28;20037;-42
2023/12/04 07:24:26;;;;;;;9.02;2.75;;;;;;;;;;5027798;28;20475;-43
2023/12/04 07:26:54;;;;;;;10.60;3.50;;;;;;;;;;5025085;28;21073;-42
2023/12/04 07:29:21;;;;;;;13.33;4.70;;;;;;;;;;5027092;28;20594;-43
2023/12/04 07:31:49;;;;;;;14.32;5.65;;;;;;;;;;5024288;28;20492;-42
2023/12/04 07:34:36;;;;;;;14.65;6.30;;;;;;;;;;5048928;28;20124;-43
2023/12/04 07:37:05;;;;;;;20.83;7.43;;;;;;;;;;5030768;28;20037;-43
2023/12/04 07:39:32;;;;;;;21.88;9.20;;;;;;;;;;5026538;28;20037;-42
2023/12/04 07:42:00;;;;;;;19.13;8.53;;;;;;;;;;5022648;28;20037;-42
2023/12/04 07:44:39;;;;;;;22.90;8.63;;;;;;;;;;5028480;28;20130;-42
2023/12/04 07:47:08;;;;;;;23.55;8.98;;;;;;;;;;5024747;28;20037;-43
2023/12/04 07:49:38;;;;;;;23.02;9.80;;;;;;;;;;5028647;28;20045;-42
2023/12/04 07:52:06;;;;;;;26.92;10.07;;;;;;;;;;5023920;28;20301;-42
2023/12/04 07:54:34;;;;;;;29.03;10.97;;;;;;;;;;5026318;28;20483;-44
2023/12/04 07:57:03;;;;;;;25.70;9.90;;;;;;;;;;5021639;28;20041;-43
2023/12/04 07:59:31;;;;;;;24.33;10.30;;;;;;;;;;5030883;28;20044;-42
2023/12/04 08:01:59;;;;;;;25.88;10.10;;;;;;;;;;5022700;28;20041;-42
2023/12/04 08:04:27;;;;;;;26.83;10.15;;;;;;;;;;5024605;28;20060;-42
2023/12/04 08:06:56;;;;;;;26.93;9.80;;;;;;;;;;5027024;28;20043;-42
2023/12/04 08:09:24;;;;;;;24.30;9.98;;;;;;;;;;5025398;28;20037;-43
2023/12/04 08:11:52;;;;;;;29.08;10.25;;;;;;;;;;5027231;28;20592;-42
2023/12/04 08:14:22;;;;;;;29.50;9.52;;;;;;;;;;5024370;28;20057;-42
2023/12/04 08:16:50;;;;;;;25.58;9.88;;;;;;;;;;5024060;28;20033;-42
2023/12/04 08:19:18;;;;;;;25.77;9.30;;;;;;;;;;5024560;28;20041;-43
2023/12/04 08:21:46;;;;;;;26.67;10.00;;;;;;;;;;5026153;28;20143;-42
2023/12/04 08:24:18;;;;;;;29.15;10.23;;;;;;;;;;5017509;28;20118;-42
2023/12/04 08:26:45;;;;;;;30.88;10.27;;;;;;;;;;5026033;28;20048;-42
2023/12/04 08:29:13;;;;;;;24.10;8.85;;;;;;;;;;5009685;28;20049;-42
2023/12/04 08:31:41;;;;;;;20.47;8.80;;;;;;;;;;4995179;28;20132;-42
2023/12/04 08:34:09;;;;;;;28.90;10.52;;;;;;;;;;5015613;28;20488;-42
2023/12/04 08:36:37;;;;;;;22.25;8.95;;;;;;;;;;5036227;28;20518;-42
2023/12/04 08:39:14;;;;;;;24.75;8.35;;;;;;;;;;4664972;28;10000219;-43
2023/12/04 08:41:45;;;;;;;23.57;8.83;;;;;;;;;;5023800;28;20061;-42
2023/12/04 08:44:27;;;;;;;21.38;8.15;;;;;;;;;;5026003;28;20047;-42
2023/12/04 08:46:57;;;;;;;23.30;8.73;;;;;;;;;;5019620;28;20048;-42
2023/12/04 08:49:25;;;;;;;26.50;8.85;;;;;;;;;;5027152;28;20064;-43
2023/12/04 08:52:06;;;;;;;20.95;8.23;;;;;;;;;;5013043;28;20122;-43
2023/12/04 08:54:36;;;;;;;23.83;8.53;;;;;;;;;;5028970;28;20091;-42
2023/12/04 08:57:04;;;;;;;20.70;7.80;;;;;;;;;;4989064;28;20045;-43
2023/12/04 08:59:33;;;;;;;19.20;7.72;;;;;;;;;;5032980;28;20514;-42
2023/12/04 09:02:03;;;;;;;20.63;7.90;;;;;;;;;;4656204;28;9999642;-42
2023/12/04 09:04:31;;;;;;;26.73;8.43;;;;;;;;;;4665709;28;10000647;-43
2023/12/04 09:06:59;;;;;;;31.95;9.30;;;;;;;;;;5013122;28;20041;-42
2023/12/04 09:09:30;;;;;;;22.73;8.07;;;;;;;;;;4980370;28;21088;-42
2023/12/04 09:12:00;;;;;;;31.02;7.85;;;;;;;;;;4961614;28;20679;-43
2023/12/04 09:14:29;;;;;;;27.10;8.40;;;;;;;;;;5035656;28;20221;-43
2023/12/04 09:16:56;;;;;;;23.95;8.32;;;;;;;;;;4999907;28;20052;-42
2023/12/04 09:19:24;;;;;;;26.52;8.20;;;;;;;;;;5007335;28;20051;-42
2023/12/04 09:21:54;;;;;;;27.80;8.82;;;;;;;;;;5007722;28;20041;-43
2023/12/04 09:24:38;;;;;;;25.05;8.38;;;;;;;;;;5008087;28;20044;-43
2023/12/04 09:27:07;;;;;;;29.83;8.17;;;;;;;;;;4994031;28;20056;-45
2023/12/04 09:29:35;;;;;;;27.45;8.02;;;;;;;;;;5002858;28;20740;-42
2023/12/04 09:32:05;;;;;;;25.23;8.13;;;;;;;;;;5001733;28;20091;-44
2023/12/04 09:34:34;;;;;;;30.90;8.75;;;;;;;;;;5005743;28;20045;-42
2023/12/04 09:37:01;;;;;;;23.42;7.43;;;;;;;;;;5004076;28;20094;-42
2023/12/04 09:39:38;;;;;;;21.20;7.40;;;;;;;;;;4999585;28;20057;-43
2023/12/04 09:42:08;;;;;;;28.10;8.05;;;;;;;;;;4991264;28;20041;-43
2023/12/04 09:44:37;;;;;;;22.30;7.85;;;;;;;;;;5005048;28;20144;-43
2023/12/04 09:47:05;;;;;;;26.55;7.78;;;;;;;;;;4990733;28;20049;-42
2023/12/04 09:49:34;;;;;;;22.23;7.60;;;;;;;;;;5052798;28;20833;-42
2023/12/04 09:52:02;;;;;;;23.17;6.50;;;;;;;;;;5015141;28;20077;-42
2023/12/04 09:54:30;;;;;;;20.60;7.38;;;;;;;;;;5022192;28;20045;-42
2023/12/04 09:56:59;;;;;;;22.35;6.82;;;;;;;;;;5018912;28;20064;-42
2023/12/04 09:59:29;;;;;;;17.10;6.30;;;;;;;;;;5024692;28;20458;-43
2023/12/04 10:01:57;;;;;;;17.30;5.85;;;;;;;;;;5013044;28;20052;-43
2023/12/04 10:04:26;;;;;;;17.63;6.33;;;;;;;;;;5019113;28;20041;-43
2023/12/04 10:06:53;;;;;;;20.50;6.47;;;;;;;;;;5022864;28;20132;-43
2023/12/04 10:09:22;;;;;;;17.83;6.40;;;;;;;;;;5014406;28;20047;-44
2023/12/04 10:11:55;;;;;;;17.75;6.32;;;;;;;;;;5020551;28;20657;-42
2023/12/04 10:14:25;;;;;;;15.25;5.57;;;;;;;;;;5025742;28;20032;-42
2023/12/04 10:16:54;;;;;;;16.93;6.17;;;;;;;;;;5016611;28;20080;-42
2023/12/04 10:19:25;;;;;;;18.27;6.28;;;;;;;;;;5027296;28;20072;-42
2023/12/04 10:21:55;;;;;;;17.08;6.03;;;;;;;;;;5015800;28;20796;-42
2023/12/04 10:24:30;;;;;;;19.30;6.07;;;;;;;;;;5022456;28;20056;-43
2023/12/04 10:26:59;;;;;;;15.18;5.70;;;;;;;;;;5024745;28;20045;-42
2023/12/04 10:29:28;;;;;;;17.23;5.43;;;;;;;;;;5015630;28;20041;-44
2023/12/04 10:32:00;;;;;;;21.27;5.65;;;;;;;;;;5022955;28;20045;-43
2023/12/04 10:34:35;;;;;;;16.73;5.82;;;;;;;;;;5020963;28;20107;-43
2023/12/04 10:37:03;;;;;;;16.95;5.90;;;;;;;;;;5020735;28;20041;-43
2023/12/04 10:39:31;;;;;;;14.27;5.32;;;;;;;;;;5017257;28;20064;-44
2023/12/04 10:42:02;;;;;;;14.83;5.67;;;;;;;;;;5025757;28;20067;-42
2023/12/04 10:44:31;;;;;;;15.40;5.05;;;;;;;;;;5000721;28;20439;-42
2023/12/04 10:47:01;;;;;;;13.50;5.18;;;;;;;;;;5019911;28;20229;-43
2023/12/04 10:49:30;;;;;;;13.20;4.97;;;;;;;;;;5010305;28;20064;-41
2023/12/04 10:51:59;;;;;;;13.10;4.60;;;;;;;;;;5026301;28;20519;-41
2023/12/04 10:54:28;;;;;;;11.80;4.47;;;;;;;;;;5023638;28;20048;-41
2023/12/04 10:56:59;;;;;;;12.02;4.38;;;;;;;;;;5047924;28;20053;-41
2023/12/04 10:59:31;;;;;;;10.75;4.10;;;;;;;;;;5022977;28;20037;-42
2023/12/04 11:02:02;;;;;;;12.23;3.78;;;;;;;;;;5023399;28;20048;-41
2023/12/04 11:04:32;;;;;;;10.17;3.60;;;;;;;;;;4670023;28;9999783;-41
2023/12/04 11:07:02;;;;;;;8.52;3.58;;;;;;;;;;5027782;28;20132;-42
2023/12/04 11:09:34;;;;;;;10.93;3.85;;;;;;;;;;5033646;28;20977;-41
2023/12/04 11:12:04;;;;;;;9.07;3.73;;;;;;;;;;5027673;28;20509;-43
2023/12/04 11:14:35;;;;;;;8.88;2.80;;;;;;;;;;5019673;28;20069;-42
2023/12/04 11:17:08;;;;;;;7.68;2.88;;;;;;;;;;5027474;28;20052;-41
2023/12/04 11:19:44;;;;;;;8.10;2.90;;;;;;;;;;5029708;28;20134;-41
2023/12/04 11:22:12;;;;;;;8.85;2.40;;;;;;;;;;5020309;28;20184;-41
2023/12/04 11:24:40;;;;;;;6.83;2.67;;;;;;;;;;5034075;28;20031;-42
2023/12/04 11:27:09;;;;;;;7.35;3.20;;;;;;;;;;5041840;28;20033;-41
2023/12/04 11:29:37;;;;;;;6.63;2.33;;;;;;;;;;5026255;28;20042;-44
2023/12/04 11:32:08;;;;;;;7.40;2.58;;;;;;;;;;5009950;28;20910;-43
2023/12/04 11:34:36;;;;;;;6.85;2.45;;;;;;;;;;5027610;28;20040;-41
2023/12/04 11:37:09;;;;;;;6.37;2.33;;;;;;;;;;5011983;28;20501;-41
2023/12/04 11:39:38;;;;;;;6.45;2.45;;;;;;;;;;5029835;28;20047;-41
2023/12/04 11:42:07;;;;;;;7.45;2.88;;;;;;;;;;5047941;28;20041;-45
2023/12/04 11:44:35;;;;;;;6.47;2.15;;;;;;;;;;5018254;28;20040;-43
2023/12/04 11:47:04;;;;;;;9.75;2.45;;;;;;;;;;5023988;28;20503;-43
2023/12/04 11:49:35;;;;;;;10.43;2.50;;;;;;;;;;5024991;28;20557;-43
2023/12/04 11:52:04;;;;;;;6.20;2.35;;;;;;;;;;5041895;28;20033;-44
2023/12/04 11:54:47;;;;;;;6.63;2.50;;;;;;;;;;5030586;28;20037;-43
2023/12/04 11:57:22;;;;;;;7.53;2.35;;;;;;;;;;5022119;28;20064;-41
2023/12/04 11:59:52;;;;;;;7.35;2.55;;;;;;;;;;5029836;28;20178;-45
2023/12/04 12:02:21;;;;;;;10.63;3.43;;;;;;;;;;5017797;28;20040;-45
2023/12/04 12:04:51;;;;;;;9.30;3.22;;;;;;;;;;5026909;28;20498;-45
2023/12/04 12:07:19;;;;;;;8.75;2.78;;;;;;;;;;5020105;28;20707;-47
2023/12/04 12:09:47;;;;;;;8.15;2.60;;;;;;;;;;5020918;28;20144;-46
2023/12/04 12:12:18;;;;;;;12.13;4.10;;;;;;;;;;5007621;28;20043;-44
2023/12/04 12:14:46;;;;;;;8.93;3.13;;;;;;;;;;5026438;28;20052;-43
2023/12/04 12:17:14;;;;;;;9.85;3.85;;;;;;;;;;5015087;28;20033;-44
2023/12/04 12:19:42;;;;;;;8.57;2.90;;;;;;;;;;5023766;28;20033;-43
2023/12/04 12:22:12;;;;;;;10.55;3.17;;;;;;;;;;5018565;28;20051;-45
2023/12/04 12:24:40;;;;;;;10.53;3.50;;;;;;;;;;4330070;28;10000639;-43
2023/12/04 12:27:09;;;;;;;10.73;3.80;;;;;;;;;;5012453;28;20158;-43
2023/12/04 12:29:39;;;;;;;11.65;3.75;;;;;;;;;;5017311;28;20717;-43
2023/12/04 12:32:07;;;;;;;12.20;4.65;;;;;;;;;;5021711;28;20064;-45
2023/12/04 12:34:36;;;;;;;10.45;3.60;;;;;;;;;;5020747;28;20037;-43
2023/12/04 12:37:05;;;;;;;8.20;3.40;;;;;;;;;;5013747;28;20063;-43
2023/12/04 12:39:35;;;;;;;10.13;2.88;;;;;;;;;;5023905;28;20033;-44
2023/12/04 12:42:05;;;;;;;9.70;3.50;;;;;;;;;;5019948;28;20040;-43
2023/12/04 12:44:39;;;;;;;10.63;3.63;;;;;;;;;;5019262;28;20033;-43
2023/12/04 12:47:07;;;;;;;8.90;3.35;;;;;;;;;;5023562;28;20047;-44
2023/12/04 12:49:35;;;;;;;8.43;3.20;;;;;;;;;;5025285;28;20041;-43
2023/12/04 12:52:09;;;;;;;7.97;3.10;;;;;;;;;;5021363;28;20067;-43
2023/12/04 12:54:39;;;;;;;10.55;3.47;;;;;;;;;;5005962;28;20056;-43
2023/12/04 12:57:07;;;;;;;10.10;3.17;;;;;;;;;;5022040;28;20716;-43
2023/12/04 12:59:35;;;;;;;8.80;3.10;;;;;;;;;;5030338;28;20036;-43
2023/12/04 13:02:06;;;;;;;8.57;3.27;;;;;;;;;;4339491;28;9999956;-43
2023/12/04 13:04:37;;;;;;;8.77;2.87;;;;;;;;;;5021915;28;20312;-43
2023/12/04 13:07:06;;;;;;;7.88;2.67;;;;;;;;;;5023026;28;20407;-43
2023/12/04 13:09:35;;;;;;;8.13;2.60;;;;;;;;;;5010524;28;20041;-43
2023/12/04 13:12:05;;;;;;;7.72;2.72;;;;;;;;;;5013790;28;20079;-43
2023/12/04 13:14:34;;;;;;;8.32;2.53;;;;;;;;;;5023898;28;20037;-42
2023/12/04 13:17:02;;;;;;;7.77;3.53;;;;;;;;;;5020673;28;20127;-42
2023/12/04 13:19:31;;;;;;;10.75;3.30;;;;;;;;;;4979197;28;20801;-44
2023/12/04 13:21:59;;;;;;;12.35;3.70;;;;;;;;;;4970378;28;20130;-43
2023/12/04 13:24:27;;;;;;;11.75;4.05;;;;;;;;;;4985338;28;20083;-43
2023/12/04 13:26:55;;;;;;;11.45;3.88;;;;;;;;;;4995126;28;20056;-43
2023/12/04 13:29:24;;;;;;;10.37;3.97;;;;;;;;;;5002146;28;20036;-44
2023/12/04 13:31:52;;;;;;;9.10;3.80;;;;;;;;;;5007149;28;20037;-42
2023/12/04 13:34:20;;;;;;;12.50;4.63;;;;;;;;;;5001250;28;20045;-42
2023/12/04 13:36:48;;;;;;;10.57;4.45;;;;;;;;;;4999902;28;20526;-42
2023/12/04 13:39:27;;;;;;;12.05;4.75;;;;;;;;;;4992863;28;20045;-45
2023/12/04 13:44:53;;;;;;;11.32;4.57;;;;;;;;;;4978409;28;20160;-43
2023/12/04 13:47:21;;;;;;;12.27;5.15;;;;;;;;;;4997227;28;20801;-43
2023/12/04 13:49:49;;;;;;;11.85;4.88;;;;;;;;;;5003479;28;20060;-43
2023/12/04 13:52:20;;;;;;;10.48;4.60;;;;;;;;;;4995607;28;20072;-43
2023/12/04 13:54:49;;;;;;;10.37;4.47;;;;;;;;;;5006318;28;20723;-42
2023/12/04 13:57:21;;;;;;;12.43;5.38;;;;;;;;;;4993098;28;20045;-42
2023/12/04 13:59:49;;;;;;;12.85;5.22;;;;;;;;;;4998322;28;20053;-43
2023/12/04 14:02:20;;;;;;;11.50;5.38;;;;;;;;;;4996275;28;20041;-43
2023/12/04 14:04:49;;;;;;;14.35;5.40;;;;;;;;;;5005742;28;20503;-42
2023/12/04 14:07:17;;;;;;;10.80;5.10;;;;;;;;;;5013780;28;20757;-43
2023/12/04 14:09:46;;;;;;;12.95;5.70;;;;;;;;;;5002857;28;20518;-42
2023/12/04 14:12:16;;;;;;;16.55;6.07;;;;;;;;;;4993896;28;20541;-42
2023/12/04 14:14:43;;;;;;;12.15;5.93;;;;;;;;;;5005824;28;20530;-43
2023/12/04 14:17:11;;;;;;;14.77;7.53;;;;;;;;;;4992858;28;20045;-42
2023/12/04 14:19:41;;;;;;;16.83;6.80;;;;;;;;;;5005790;28;20052;-43
2023/12/04 14:22:09;;;;;;;16.80;6.95;;;;;;;;;;5008776;28;20102;-42
2023/12/04 14:24:38;;;;;;;14.93;7.18;;;;;;;;;;5017394;28;20045;-42
2023/12/04 14:27:06;;;;;;;16.33;7.53;;;;;;;;;;5012446;28;20069;-42
2023/12/04 14:29:33;;;;;;;18.25;7.43;;;;;;;;;;5023593;28;20794;-42
2023/12/04 14:32:02;;;;;;;16.80;7.77;;;;;;;;;;5008392;28;20087;-42
2023/12/04 14:34:30;;;;;;;18.27;8.25;;;;;;;;;;5027982;28;20807;-42
2023/12/04 14:36:59;;;;;;;17.40;7.47;;;;;;;;;;5004506;28;21750;-44
2023/12/04 14:39:27;;;;;;;20.40;7.97;;;;;;;;;;5009152;28;20041;-42
2023/12/04 14:41:55;;;;;;;16.77;7.13;;;;;;;;;;5045170;28;20041;-42
2023/12/04 14:44:23;;;;;;;14.00;7.00;;;;;;;;;;5020743;28;20476;-42
2023/12/04 14:46:51;;;;;;;16.00;7.15;;;;;;;;;;4993579;28;20069;-42
2023/12/04 14:49:19;;;;;;;18.42;7.60;;;;;;;;;;4994904;28;20622;-42